createdAt,value
2022-09-23T00:02:56.045Z,101351.68
2022-09-23T00:06:33.971Z,101347.70
2022-09-23T00:10:13.183Z,101346.32
2022-09-23T00:13:53.437Z,101344.09
2022-09-23T00:17:32.162Z,101338.81
2022-09-23T00:21:13.845Z,101338.73
2022-09-23T00:24:50.891Z,101342.18
2022-09-23T00:28:28.143Z,101338.11
2022-09-23T00:32:05.811Z,101334.18
2022-09-23T00:35:42.650Z,101331.54
2022-09-23T00:39:19.908Z,101326.05
2022-09-23T00:42:57.162Z,101324.06
2022-09-23T00:46:42.830Z,101322.98
2022-09-23T00:50:34.792Z,101322.37
2022-09-23T00:54:14.566Z,101320.11
2022-09-23T00:57:55.747Z,101319.04
2022-09-23T01:01:33.023Z,101318.93
2022-09-23T01:05:12.097Z,101320.20
2022-09-23T01:08:50.167Z,101324.51
2022-09-23T01:12:54.336Z,101318.31
2022-09-23T01:16:40.768Z,101314.50
2022-09-23T01:20:40.261Z,101308.17
2022-09-23T01:25:10.339Z,101305.95
2022-09-23T01:29:17.574Z,101301.13
2022-09-23T01:33:12.278Z,101297.71
2022-09-23T01:36:57.794Z,101296.61
2022-09-23T01:40:41.892Z,101296.65
2022-09-23T01:44:46.258Z,101295.95
2022-09-23T01:48:38.506Z,101293.55
2022-09-23T01:52:27.666Z,101292.27
2022-09-23T01:56:21.042Z,101288.71
2022-09-23T02:00:14.110Z,101288.13
2022-09-23T02:04:23.970Z,101289.17
2022-09-23T02:07:40.057Z,101283.52
2022-09-23T02:11:18.299Z,101284.04
2022-09-23T02:14:58.438Z,101285.89
2022-09-23T02:18:56.324Z,101284.80
2022-09-23T02:22:56.910Z,101281.45
2022-09-23T02:26:47.603Z,101285.83
2022-09-23T02:30:30.399Z,101283.15
2022-09-23T02:34:29.898Z,101275.18
2022-09-23T02:38:38.817Z,101276.38
2022-09-23T02:42:22.502Z,101278.50
2022-09-23T02:46:00.671Z,101277.35
2022-09-23T02:49:38.560Z,101276.20
2022-09-23T02:53:15.917Z,101280.27
2022-09-23T02:56:53.679Z,101279.85
2022-09-23T03:00:57.622Z,101281.28
2022-09-23T03:05:05.598Z,101282.80
2022-09-23T03:08:58.358Z,101276.00
2022-09-23T03:13:17.723Z,101272.30
2022-09-23T03:17:11.242Z,101269.00
2022-09-23T03:20:56.577Z,101271.66
2022-09-23T03:24:36.689Z,101270.42
2022-09-23T03:28:17.864Z,101266.54
2022-09-23T03:31:57.302Z,101267.17
2022-09-23T03:35:42.031Z,101270.60
2022-09-23T03:39:44.309Z,101274.61
2022-09-23T03:43:21.943Z,101275.87
2022-09-23T03:47:02.298Z,101276.55
2022-09-23T03:50:39.237Z,101276.05
2022-09-23T03:54:16.368Z,101277.32
2022-09-23T03:57:53.218Z,101280.16
2022-09-23T04:01:30.716Z,101281.69
2022-09-23T04:05:09.650Z,101286.02
2022-09-23T04:08:46.809Z,101289.38
2022-09-23T04:12:23.437Z,101287.35
2022-09-23T04:16:00.257Z,101290.59
2022-09-23T04:19:37.775Z,101293.90
2022-09-23T04:23:16.190Z,101291.63
2022-09-23T04:26:54.906Z,101293.49
2022-09-23T04:30:31.780Z,101293.96
2022-09-23T04:34:10.318Z,101300.89
2022-09-23T04:37:48.435Z,101302.70
2022-09-23T04:41:25.560Z,101301.89
2022-09-23T04:45:02.364Z,101302.96
2022-09-23T04:48:41.379Z,101304.21
2022-09-23T04:52:19.116Z,101302.55
2022-09-23T04:56:16.690Z,101301.77
2022-09-23T04:59:53.854Z,101303.16
2022-09-23T05:03:31.047Z,101303.86
2022-09-23T05:07:09.381Z,101301.50
2022-09-23T05:10:47.083Z,101306.50
2022-09-23T05:14:24.962Z,101310.30
2022-09-23T05:18:03.663Z,101311.36
2022-09-23T05:21:40.457Z,101309.93
2022-09-23T05:25:17.717Z,101316.70
2022-09-23T05:28:57.111Z,101313.27
2022-09-23T05:32:53.768Z,101317.32
2022-09-23T05:36:11.298Z,101323.29
2022-09-23T05:39:48.332Z,101315.16
2022-09-23T05:43:26.435Z,101314.65
2022-09-23T05:47:05.645Z,101315.26
2022-09-23T05:50:52.889Z,101319.09
2022-09-23T05:54:29.898Z,101321.32
2022-09-23T05:58:07.503Z,101326.86
2022-09-23T06:01:44.987Z,101323.20
2022-09-23T06:05:22.798Z,101320.14
2022-09-23T06:09:00.826Z,101319.38
2022-09-23T06:12:38.284Z,101318.05
2022-09-23T06:16:16.571Z,101321.52
2022-09-23T06:19:53.935Z,101324.60
2022-09-23T06:23:31.890Z,101325.13
2022-09-23T06:27:10.256Z,101332.23
2022-09-23T06:30:48.216Z,101335.33
2022-09-23T06:34:25.758Z,101339.92
2022-09-23T06:38:06.142Z,101337.98
2022-09-23T06:41:45.501Z,101342.83
2022-09-23T06:45:23.228Z,101341.31
2022-09-23T06:49:00.013Z,101350.33
2022-09-23T06:52:36.858Z,101359.81
2022-09-23T06:56:16.060Z,101362.93
2022-09-23T06:59:54.309Z,101365.42
2022-09-23T07:03:31.533Z,101370.79
2022-09-23T07:07:09.482Z,101365.28
2022-09-23T07:10:59.144Z,101369.73
2022-09-23T07:14:36.823Z,101373.33
2022-09-23T07:18:14.793Z,101366.36
2022-09-23T07:21:52.351Z,101366.41
2022-09-23T07:25:30.326Z,101369.73
2022-09-23T07:29:07.882Z,101371.20
2022-09-23T07:32:48.896Z,101372.30
2022-09-23T07:36:29.993Z,101371.27
2022-09-23T07:40:07.583Z,101380.84
2022-09-23T07:44:05.537Z,101384.31
2022-09-23T07:47:21.415Z,101384.40
2022-09-23T07:50:58.771Z,101383.80
2022-09-23T07:54:37.258Z,101392.17
2022-09-23T07:58:16.145Z,101393.70
2022-09-23T08:01:55.016Z,101401.52
2022-09-23T08:05:32.488Z,101406.27
2022-09-23T08:09:10.614Z,101410.73
2022-09-23T08:12:47.933Z,101410.99
2022-09-23T08:16:26.046Z,101406.92
2022-09-23T08:20:03.691Z,101416.64
2022-09-23T08:23:40.495Z,101421.44
2022-09-23T08:27:18.976Z,101426.83
2022-09-23T08:30:58.423Z,101434.85
2022-09-23T08:34:35.739Z,101435.54
2022-09-23T08:38:14.023Z,101438.73
2022-09-23T08:42:25.789Z,101444.73
2022-09-23T08:46:08.333Z,101447.13
2022-09-23T08:49:51.203Z,101447.70
2022-09-23T08:53:38.550Z,101450.52
2022-09-23T08:57:33.762Z,101458.50
2022-09-23T09:01:22.134Z,101459.90
2022-09-23T09:05:05.768Z,101461.13
2022-09-23T09:08:47.210Z,101463.63
2022-09-23T09:12:40.218Z,101463.04
2022-09-23T09:16:58.232Z,101466.36
2022-09-23T09:20:39.856Z,101469.98
2022-09-23T09:24:35.739Z,101473.84
2022-09-23T09:28:25.271Z,101468.98
2022-09-23T09:32:24.553Z,101465.71
2022-09-23T09:36:15.304Z,101462.05
2022-09-23T09:39:52.940Z,101460.09
2022-09-23T09:43:32.449Z,101457.08
2022-09-23T09:47:31.114Z,101453.23
2022-09-23T09:51:34.530Z,101449.31
2022-09-23T09:55:12.224Z,101447.56
2022-09-23T09:59:01.754Z,101442.56
2022-09-23T10:02:40.133Z,101444.41
2022-09-23T10:06:24.699Z,101439.08
2022-09-23T10:10:31.682Z,101441.11
2022-09-23T10:14:15.905Z,101438.38
2022-09-23T10:17:53.915Z,101434.76
2022-09-23T10:21:36.948Z,101431.22
2022-09-23T10:25:21.169Z,101432.66
2022-09-23T10:29:01.995Z,101432.67
2022-09-23T10:32:46.541Z,101431.21
2022-09-23T10:36:23.891Z,101430.41
2022-09-23T10:40:14.815Z,101427.42
2022-09-23T10:44:17.497Z,101422.83
2022-09-23T10:48:06.684Z,101420.50
2022-09-23T10:52:01.707Z,101410.34
2022-09-23T10:56:07.918Z,101409.30
2022-09-23T11:00:03.064Z,101409.14
2022-09-23T11:04:01.449Z,101408.73
2022-09-23T11:08:29.878Z,101404.23
2022-09-23T11:12:19.559Z,101405.22
2022-09-23T11:16:30.944Z,101399.81
2022-09-23T11:20:08.676Z,101399.55
2022-09-23T11:24:25.617Z,101394.41
2022-09-23T11:28:06.555Z,101388.18
2022-09-23T11:31:59.723Z,101383.11
2022-09-23T11:36:07.518Z,101383.93
2022-09-23T11:39:30.242Z,101382.08
2022-09-23T11:43:18.557Z,101379.34
2022-09-23T11:47:18.886Z,101374.58
2022-09-23T11:51:06.072Z,101365.58
2022-09-23T11:54:56.374Z,101369.33
2022-09-23T11:58:46.544Z,101361.17
2022-09-23T12:02:41.863Z,101358.77
2022-09-23T12:06:23.106Z,101354.35
2022-09-23T12:10:05.861Z,101353.88
2022-09-23T12:14:12.577Z,101348.43
2022-09-23T12:18:22.228Z,101340.10
2022-09-23T12:22:22.203Z,101331.75
2022-09-23T12:26:12.507Z,101326.41
2022-09-23T12:29:55.987Z,101326.64
2022-09-23T12:33:34.311Z,101316.13
2022-09-23T12:37:14.125Z,101313.01
2022-09-23T12:40:54.732Z,101302.38
2022-09-23T12:44:40.109Z,101304.35
2022-09-23T12:48:18.487Z,101289.60
2022-09-23T12:52:10.973Z,101285.36
2022-09-23T12:55:49.506Z,101283.55
2022-09-23T12:59:52.707Z,101277.70
2022-09-23T13:03:31.197Z,101277.77
2022-09-23T13:07:09.662Z,101277.42
2022-09-23T13:10:58.190Z,101273.19
2022-09-23T13:14:35.660Z,101263.85
2022-09-23T13:18:19.555Z,101268.69
2022-09-23T13:22:08.779Z,101263.60
2022-09-23T13:25:46.697Z,101260.92
2022-09-23T13:29:54.790Z,101258.60
2022-09-23T13:33:42.635Z,101260.55
2022-09-23T13:37:23.791Z,101249.93
2022-09-23T13:41:09.989Z,101240.63
2022-09-23T13:44:48.259Z,101240.23
2022-09-23T13:48:26.647Z,101233.02
2022-09-23T13:52:04.825Z,101227.31
2022-09-23T13:55:41.768Z,101225.73
2022-09-23T13:59:25.050Z,101219.70
2022-09-23T14:03:16.770Z,101221.85
2022-09-23T14:06:54.671Z,101218.23
2022-09-23T14:10:34.516Z,101214.71
2022-09-23T14:14:15.301Z,101217.34
2022-09-23T14:18:03.406Z,101212.04
2022-09-23T14:21:41.425Z,101193.73
2022-09-23T14:25:19.956Z,101198.98
2022-09-23T14:28:57.100Z,101191.73
2022-09-23T14:32:35.211Z,101187.13
2022-09-23T14:36:16.536Z,101176.79
2022-09-23T14:39:57.813Z,101171.00
2022-09-23T14:43:35.189Z,101167.02
2022-09-23T14:47:14.533Z,101162.33
2022-09-23T14:50:57.783Z,101154.04
2022-09-23T14:54:39.066Z,101157.48
2022-09-23T14:58:19.524Z,101167.27
2022-09-23T15:01:56.759Z,101162.91
2022-09-23T15:05:43.458Z,101165.50
2022-09-23T15:09:35.675Z,101162.29
2022-09-23T15:13:18.201Z,101174.85
2022-09-23T15:16:56.300Z,101166.08
2022-09-23T15:20:35.709Z,101164.23
2022-09-23T15:24:42.341Z,101166.42
2022-09-23T15:28:20.266Z,101159.52
2022-09-23T15:31:58.403Z,101157.42
2022-09-23T15:35:36.649Z,101155.98
2022-09-23T15:39:14.924Z,101147.52
2022-09-23T15:42:59.669Z,101138.17
2022-09-23T15:46:37.211Z,101134.31
2022-09-23T15:50:14.264Z,101130.61
2022-09-23T15:53:51.921Z,101131.19
2022-09-23T15:57:30.914Z,101125.23
2022-09-23T16:01:35.546Z,101120.23
2022-09-23T16:05:23.191Z,101108.39
2022-09-23T16:09:01.048Z,101118.55
2022-09-23T16:12:38.581Z,101115.41
2022-09-23T16:16:16.125Z,101115.00
2022-09-23T16:19:54.550Z,101120.73
2022-09-23T16:23:37.197Z,101120.48
2022-09-23T16:27:18.896Z,101126.60
2022-09-23T16:30:56.557Z,101128.95
2022-09-23T16:34:37.812Z,101128.14
2022-09-23T16:38:17.575Z,101122.27
2022-09-23T16:41:54.642Z,101120.18
2022-09-23T16:45:31.986Z,101113.55
2022-09-23T16:49:09.732Z,101118.43
2022-09-23T16:52:51.206Z,101118.90
2022-09-23T16:56:30.266Z,101111.88
2022-09-23T17:00:14.901Z,101113.63
2022-09-23T17:03:53.319Z,101124.77
2022-09-23T17:07:30.698Z,101131.05
2022-09-23T17:11:11.045Z,101129.24
2022-09-23T17:14:49.278Z,101127.77
2022-09-23T17:18:27.541Z,101128.36
2022-09-23T17:22:04.413Z,101126.39
2022-09-23T17:25:48.369Z,101131.73
2022-09-23T17:29:26.314Z,101123.27
2022-09-23T17:33:04.023Z,101120.52
2022-09-23T17:36:41.105Z,101131.81
2022-09-23T17:40:19.057Z,101130.50
2022-09-23T17:43:57.863Z,101128.66
2022-09-23T17:47:38.348Z,101124.68
2022-09-23T17:51:18.793Z,101128.73
2022-09-23T17:54:55.924Z,101129.35
2022-09-23T17:58:35.816Z,101127.02
2022-09-23T18:02:15.568Z,101120.58
2022-09-23T18:05:53.653Z,101119.29
2022-09-23T18:09:30.470Z,101120.05
2022-09-23T18:13:09.070Z,101123.08
2022-09-23T18:16:48.666Z,101122.98
2022-09-23T18:20:25.797Z,101130.42
2022-09-23T18:24:28.547Z,101130.41
2022-09-23T18:28:02.846Z,101131.52
2022-09-23T18:31:41.230Z,101129.84
2022-09-23T18:35:18.759Z,101128.14
2022-09-23T18:38:56.038Z,101128.60
2022-09-23T18:42:32.903Z,101122.41
2022-09-23T18:46:13.947Z,101118.00
2022-09-23T18:49:51.079Z,101123.38
2022-09-23T18:53:28.420Z,101133.66
2022-09-23T18:57:06.701Z,101140.73
2022-09-23T19:00:44.639Z,101143.97
2022-09-23T19:04:26.537Z,101147.59
2022-09-23T19:08:04.566Z,101151.61
2022-09-23T19:11:43.055Z,101152.03
2022-09-23T19:15:20.405Z,101150.71
2022-09-23T19:18:59.712Z,101150.47
2022-09-23T19:22:36.635Z,101151.84
2022-09-23T19:26:15.018Z,101154.84
2022-09-23T19:29:54.427Z,101150.68
2022-09-23T19:33:31.916Z,101147.14
2022-09-23T19:37:09.878Z,101147.40
2022-09-23T19:40:49.993Z,101148.92
2022-09-23T19:44:28.387Z,101148.70
2022-09-23T19:48:06.111Z,101149.34
2022-09-23T19:51:43.105Z,101146.93
2022-09-23T19:55:20.687Z,101150.39
2022-09-23T19:58:59.232Z,101147.75
2022-09-23T20:02:37.201Z,101152.27
2022-09-23T20:06:15.848Z,101151.15
2022-09-23T20:09:53.842Z,101150.67
2022-09-23T20:13:31.134Z,101148.27
2022-09-23T20:17:08.576Z,101148.67
2022-09-23T20:20:54.275Z,101148.59
2022-09-23T20:24:31.502Z,101142.40
2022-09-23T20:28:09.571Z,101139.85
2022-09-23T20:31:48.320Z,101138.70
2022-09-23T20:35:25.678Z,101131.30
2022-09-23T20:39:05.029Z,101120.52
2022-09-23T20:42:42.810Z,101121.23
2022-09-23T20:46:20.805Z,101128.42
2022-09-23T20:49:57.673Z,101125.77
2022-09-23T20:53:35.599Z,101121.82
2022-09-23T20:57:14.574Z,101124.52
2022-09-23T21:00:51.812Z,101125.69
2022-09-23T21:04:30.303Z,101126.96
2022-09-23T21:08:07.199Z,101125.33
2022-09-23T21:11:44.677Z,101124.27
2022-09-23T21:15:22.659Z,101127.09
2022-09-23T21:18:59.777Z,101122.00
2022-09-23T21:22:36.851Z,101114.45
2022-09-23T21:26:20.664Z,101111.88
2022-09-23T21:29:58.083Z,101116.13
2022-09-23T21:33:35.650Z,101116.88
2022-09-23T21:37:13.004Z,101117.78
2022-09-23T21:40:57.457Z,101114.30
2022-09-23T21:44:34.568Z,101113.14
2022-09-23T21:48:13.565Z,101111.29
2022-09-23T21:51:51.328Z,101105.90
2022-09-23T21:55:29.991Z,101106.44
2022-09-23T21:59:08.048Z,101107.73
2022-09-23T22:02:46.156Z,101108.11
2022-09-23T22:06:27.273Z,101107.34
2022-09-23T22:10:05.062Z,101103.30
2022-09-23T22:14:05.655Z,101101.75
2022-09-23T22:17:19.691Z,101099.05
2022-09-23T22:20:58.489Z,101093.56
2022-09-23T22:24:35.774Z,101088.55
2022-09-23T22:28:13.582Z,101086.16
2022-09-23T22:31:52.172Z,101084.13
2022-09-23T22:35:30.136Z,101079.93
2022-09-23T22:39:08.614Z,101080.95
2022-09-23T22:42:45.871Z,101076.65
2022-09-23T22:46:23.575Z,101078.52
2022-09-23T22:50:00.883Z,101076.55
2022-09-23T22:53:38.033Z,101071.39
2022-09-23T22:57:18.078Z,101068.71
2022-09-23T23:00:56.873Z,101062.53
2022-09-23T23:04:34.092Z,101057.83
2022-09-23T23:08:10.937Z,101049.04
2022-09-23T23:11:48.498Z,101051.70
2022-09-23T23:15:26.056Z,101046.07
2022-09-23T23:19:08.221Z,101043.77
2022-09-23T23:22:45.577Z,101043.81
2022-09-23T23:26:27.939Z,101038.83
2022-09-23T23:30:06.019Z,101034.62
2022-09-23T23:33:43.611Z,101036.04
2022-09-23T23:37:21.207Z,101033.70
2022-09-23T23:41:03.309Z,101031.77
2022-09-23T23:44:40.452Z,101026.85
2022-09-23T23:48:19.332Z,101029.71
2022-09-23T23:51:56.665Z,101028.31
2022-09-23T23:55:38.352Z,101024.58
2022-09-23T23:59:16.362Z,101019.41
